createdAt,value
2017-09-09T00:01:18.420Z,99.90
2017-09-09T00:03:45.859Z,99.90
2017-09-09T00:06:13.346Z,99.90
2017-09-09T00:08:44.375Z,99.90
2017-09-09T00:11:11.799Z,99.90
2017-09-09T00:13:39.254Z,99.90
2017-09-09T00:16:06.721Z,99.90
2017-09-09T00:18:34.193Z,99.90
2017-09-09T00:21:01.779Z,99.90
2017-09-09T00:23:29.314Z,99.90
2017-09-09T00:25:56.808Z,99.90
2017-09-09T00:28:24.229Z,99.90
2017-09-09T00:30:52.410Z,99.90
2017-09-09T00:33:20.597Z,99.90
2017-09-09T00:35:48.085Z,99.90
2017-09-09T00:38:15.531Z,99.90
2017-09-09T00:40:42.993Z,99.90
2017-09-09T00:43:10.479Z,99.90
2017-09-09T00:45:37.909Z,99.90
2017-09-09T00:48:05.341Z,99.90
2017-09-09T00:50:32.778Z,99.90
2017-09-09T00:53:00.276Z,99.90
2017-09-09T00:55:27.701Z,99.90
2017-09-09T00:57:55.144Z,99.90
2017-09-09T01:00:23.345Z,99.90
2017-09-09T01:02:50.775Z,99.90
2017-09-09T01:05:18.268Z,99.90
2017-09-09T01:07:45.708Z,99.90
2017-09-09T01:10:13.149Z,99.90
2017-09-09T01:12:40.613Z,99.90
2017-09-09T01:15:08.082Z,99.90
2017-09-09T01:17:35.499Z,99.90
2017-09-09T01:20:03.713Z,99.90
2017-09-09T01:22:31.196Z,99.90
2017-09-09T01:24:58.626Z,99.90
2017-09-09T01:27:26.089Z,99.90
2017-09-09T01:29:53.545Z,99.90
2017-09-09T01:32:20.974Z,99.90
2017-09-09T01:34:48.432Z,99.90
2017-09-09T01:37:15.942Z,99.90
2017-09-09T01:39:43.364Z,99.90
2017-09-09T01:42:10.800Z,99.90
2017-09-09T01:44:38.326Z,99.90
2017-09-09T01:47:05.744Z,99.90
2017-09-09T01:49:33.174Z,99.90
2017-09-09T01:52:00.653Z,99.90
2017-09-09T01:54:28.080Z,99.90
2017-09-09T01:56:55.563Z,99.90
2017-09-09T01:59:23.020Z,99.90
2017-09-09T02:01:50.459Z,99.90
2017-09-09T02:04:17.888Z,99.90
2017-09-09T02:06:46.081Z,99.90
2017-09-09T02:09:13.537Z,99.90
2017-09-09T02:11:40.984Z,99.90
2017-09-09T02:14:08.472Z,99.90
2017-09-09T02:16:35.932Z,99.90
2017-09-09T02:19:03.367Z,99.90
2017-09-09T02:21:30.812Z,99.90
2017-09-09T02:23:58.281Z,99.90
2017-09-09T02:26:25.729Z,99.90
2017-09-09T02:28:53.162Z,99.90
2017-09-09T02:31:20.583Z,99.90
2017-09-09T02:33:48.790Z,99.90
2017-09-09T02:36:16.277Z,99.90
2017-09-09T02:38:43.723Z,99.90
2017-09-09T02:41:11.140Z,99.90
2017-09-09T02:43:38.560Z,99.90
2017-09-09T02:46:06.001Z,99.90
2017-09-09T02:48:33.454Z,99.90
2017-09-09T02:51:00.921Z,99.90
2017-09-09T02:53:28.349Z,99.90
2017-09-09T02:55:55.824Z,99.90
2017-09-09T02:58:23.280Z,99.90
2017-09-09T03:00:50.723Z,99.90
2017-09-09T03:03:18.141Z,99.90
2017-09-09T03:05:46.373Z,99.90
2017-09-09T03:08:13.835Z,99.90
2017-09-09T03:10:41.261Z,99.90
2017-09-09T03:13:08.684Z,99.90
2017-09-09T03:15:36.896Z,99.90
2017-09-09T03:18:04.323Z,99.90
2017-09-09T03:20:31.754Z,99.90
2017-09-09T03:22:59.168Z,99.90
2017-09-09T03:25:26.646Z,99.90
2017-09-09T03:27:54.175Z,99.90
2017-09-09T03:30:21.738Z,99.90
2017-09-09T03:32:49.159Z,99.90
2017-09-09T03:35:17.481Z,99.90
2017-09-09T03:37:44.947Z,99.90
2017-09-09T03:40:12.413Z,99.90
2017-09-09T03:42:39.844Z,99.90
2017-09-09T03:45:07.272Z,99.90
2017-09-09T03:47:34.709Z,99.90
2017-09-09T03:50:02.161Z,99.90
2017-09-09T03:52:30.418Z,99.90
2017-09-09T03:54:58.636Z,99.90
2017-09-09T03:57:26.813Z,99.90
2017-09-09T03:59:54.232Z,99.90
2017-09-09T04:02:22.440Z,99.90
2017-09-09T04:04:49.865Z,99.90
2017-09-09T04:07:18.130Z,99.90
2017-09-09T04:09:45.658Z,99.90
2017-09-09T04:12:13.089Z,99.90
2017-09-09T04:14:40.605Z,99.90
2017-09-09T04:17:08.125Z,99.90
2017-09-09T04:19:35.579Z,99.90
2017-09-09T04:22:03.000Z,99.90
2017-09-09T04:24:30.436Z,99.90
2017-09-09T04:26:57.961Z,99.90
2017-09-09T04:29:25.385Z,99.90
2017-09-09T04:31:52.808Z,99.90
2017-09-09T04:34:20.364Z,99.90
2017-09-09T04:36:47.761Z,99.90
2017-09-09T04:39:15.185Z,99.90
2017-09-09T04:41:42.641Z,99.90
2017-09-09T04:44:10.069Z,99.90
2017-09-09T04:46:37.537Z,99.90
2017-09-09T04:49:05.393Z,99.90
2017-09-09T04:51:32.833Z,99.90
2017-09-09T04:54:00.274Z,99.90
2017-09-09T04:56:27.680Z,99.90
2017-09-09T04:58:56.121Z,99.90
2017-09-09T05:01:23.600Z,99.90
2017-09-09T05:03:51.036Z,99.90
2017-09-09T05:06:18.486Z,99.90
2017-09-09T05:08:45.969Z,99.90
2017-09-09T05:11:13.424Z,99.90
2017-09-09T05:13:40.881Z,99.90
2017-09-09T05:16:08.320Z,99.90
2017-09-09T05:18:35.779Z,99.90
2017-09-09T05:21:03.228Z,99.90
2017-09-09T05:23:30.639Z,99.90
2017-09-09T05:25:58.877Z,99.90
2017-09-09T05:28:26.319Z,99.90
2017-09-09T05:30:53.769Z,99.90
2017-09-09T05:33:21.225Z,99.90
2017-09-09T05:35:48.660Z,99.90
2017-09-09T05:38:16.095Z,99.90
2017-09-09T05:40:44.298Z,99.90
2017-09-09T05:43:11.731Z,99.90
2017-09-09T05:45:39.925Z,99.90
2017-09-09T05:48:07.406Z,99.90
2017-09-09T05:50:35.305Z,99.90
2017-09-09T05:53:03.501Z,99.90
2017-09-09T05:55:30.928Z,99.90
2017-09-09T05:57:58.363Z,99.90
2017-09-09T06:00:25.826Z,99.90
2017-09-09T06:02:53.269Z,99.90
2017-09-09T06:05:20.708Z,99.90
2017-09-09T06:07:48.192Z,99.90
2017-09-09T06:10:15.638Z,99.90
2017-09-09T06:12:43.095Z,99.90
2017-09-09T06:15:10.535Z,99.90
2017-09-09T06:17:37.992Z,99.90
2017-09-09T06:20:05.424Z,99.90
2017-09-09T06:22:32.916Z,99.90
2017-09-09T06:25:00.364Z,99.90
2017-09-09T06:27:27.796Z,99.90
2017-09-09T06:29:55.243Z,99.90
2017-09-09T06:32:23.481Z,99.90
2017-09-09T06:34:50.935Z,99.90
2017-09-09T06:37:18.353Z,99.90
2017-09-09T06:39:45.788Z,99.90
2017-09-09T06:42:13.296Z,99.90
2017-09-09T06:44:40.753Z,99.90
2017-09-09T06:47:08.202Z,99.90
2017-09-09T06:49:35.644Z,99.90
2017-09-09T06:52:03.082Z,99.90
2017-09-09T06:54:30.500Z,99.90
2017-09-09T06:56:58.733Z,99.90
2017-09-09T06:59:26.169Z,99.90
2017-09-09T07:01:53.630Z,99.90
2017-09-09T07:04:21.117Z,99.90
2017-09-09T07:06:48.665Z,99.90
2017-09-09T07:09:16.106Z,99.90
2017-09-09T07:11:43.537Z,99.90
2017-09-09T07:14:10.964Z,99.90
2017-09-09T07:16:39.181Z,99.90
2017-09-09T07:19:06.602Z,99.90
2017-09-09T07:21:34.859Z,99.90
2017-09-09T07:24:02.384Z,99.90
2017-09-09T07:26:29.851Z,99.90
2017-09-09T07:28:57.296Z,99.90
2017-09-09T07:31:24.783Z,99.90
2017-09-09T07:33:52.222Z,99.90
2017-09-09T07:36:19.665Z,99.90
2017-09-09T07:38:47.903Z,99.90
2017-09-09T07:41:15.363Z,99.90
2017-09-09T07:43:42.806Z,99.90
2017-09-09T07:46:10.243Z,99.90
2017-09-09T07:48:37.700Z,99.90
2017-09-09T07:51:05.133Z,99.90
2017-09-09T07:53:32.658Z,99.90
2017-09-09T07:56:00.842Z,99.90
2017-09-09T07:58:28.368Z,99.90
2017-09-09T08:00:55.806Z,99.90
2017-09-09T08:03:23.238Z,99.90
2017-09-09T08:05:51.457Z,99.90
2017-09-09T08:08:18.904Z,99.90
2017-09-09T08:10:46.352Z,99.90
2017-09-09T08:13:13.776Z,99.90
2017-09-09T08:15:41.408Z,99.90
2017-09-09T08:18:08.946Z,99.90
2017-09-09T08:20:36.399Z,99.90
2017-09-09T08:23:03.879Z,99.90
2017-09-09T08:25:31.295Z,99.90
2017-09-09T08:27:58.741Z,99.90
2017-09-09T08:30:26.185Z,99.90
2017-09-09T08:32:53.672Z,99.90
2017-09-09T08:35:21.121Z,99.90
2017-09-09T08:37:48.620Z,99.90
2017-09-09T08:40:16.033Z,99.90
2017-09-09T08:42:43.515Z,99.90
2017-09-09T08:45:10.971Z,99.90
2017-09-09T08:47:38.404Z,99.90
2017-09-09T08:50:05.820Z,99.90
2017-09-09T08:52:34.042Z,99.90
2017-09-09T08:55:01.505Z,99.90
2017-09-09T08:57:28.919Z,99.90
2017-09-09T08:59:57.224Z,99.90
2017-09-09T09:02:24.621Z,99.90
2017-09-09T09:04:52.050Z,99.90
2017-09-09T09:07:19.516Z,99.90
2017-09-09T09:09:46.964Z,99.90
2017-09-09T09:12:14.396Z,99.90
2017-09-09T09:14:41.839Z,99.90
2017-09-09T09:17:09.280Z,99.90
2017-09-09T09:19:36.784Z,99.90
2017-09-09T09:22:04.364Z,99.90
2017-09-09T09:24:31.928Z,99.90
2017-09-09T09:26:59.401Z,99.90
2017-09-09T09:29:27.043Z,99.90
2017-09-09T09:31:54.486Z,99.90
2017-09-09T09:34:21.907Z,99.90
2017-09-09T09:36:49.330Z,99.90
2017-09-09T09:39:17.570Z,99.90
2017-09-09T09:41:45.008Z,99.90
2017-09-09T09:44:12.424Z,99.90
2017-09-09T09:46:40.613Z,99.90
2017-09-09T09:49:08.043Z,99.90
2017-09-09T09:51:36.233Z,99.90
2017-09-09T09:54:04.461Z,99.50
2017-09-09T09:56:31.900Z,99.50
2017-09-09T09:58:59.319Z,99.70
2017-09-09T10:01:27.496Z,98.90
2017-09-09T10:03:55.092Z,98.90
2017-09-09T10:06:22.577Z,99.10
2017-09-09T10:08:50.033Z,99.40
2017-09-09T10:11:17.618Z,99.40
2017-09-09T10:13:45.894Z,98.80
2017-09-09T10:16:13.327Z,98.70
2017-09-09T10:18:40.788Z,98.30
2017-09-09T10:21:09.183Z,97.70
2017-09-09T10:23:37.389Z,97.40
2017-09-09T10:26:04.841Z,97.40
2017-09-09T10:28:32.311Z,96.70
2017-09-09T10:30:59.726Z,96.00
2017-09-09T10:33:27.955Z,94.60
2017-09-09T10:35:55.386Z,94.50
2017-09-09T10:38:22.815Z,94.10
2017-09-09T10:40:51.053Z,94.10
2017-09-09T10:43:18.503Z,94.00
2017-09-09T10:45:45.914Z,93.80
2017-09-09T10:48:14.100Z,92.80
2017-09-09T10:50:41.586Z,92.80
2017-09-09T10:53:08.991Z,92.90
2017-09-09T10:55:36.407Z,92.20
2017-09-09T10:58:04.624Z,90.80
2017-09-09T11:00:32.166Z,90.80
2017-09-09T11:02:59.609Z,91.00
2017-09-09T11:05:27.810Z,89.90
2017-09-09T11:07:55.988Z,90.00
2017-09-09T11:10:23.438Z,90.00
2017-09-09T11:12:51.676Z,90.70
2017-09-09T11:15:19.126Z,90.70
2017-09-09T11:17:46.529Z,88.90
2017-09-09T11:20:13.956Z,88.90
2017-09-09T11:22:42.161Z,88.00
2017-09-09T11:25:09.648Z,87.90
2017-09-09T11:27:37.092Z,86.80
2017-09-09T11:30:04.530Z,83.70
2017-09-09T11:32:31.960Z,84.30
2017-09-09T11:35:00.186Z,82.50
2017-09-09T11:37:28.516Z,82.50
2017-09-09T11:39:56.711Z,82.50
2017-09-09T11:42:24.120Z,82.40
2017-09-09T11:44:51.648Z,86.10
2017-09-09T11:47:19.104Z,86.20
2017-09-09T11:49:46.554Z,85.90
2017-09-09T11:52:14.003Z,85.70
2017-09-09T11:54:41.467Z,86.10
2017-09-09T11:57:08.960Z,87.00
2017-09-09T11:59:36.408Z,86.70
2017-09-09T12:02:03.830Z,87.30
2017-09-09T12:04:31.269Z,87.20
2017-09-09T12:06:58.778Z,88.10
2017-09-09T12:09:26.207Z,88.60
2017-09-09T12:11:53.644Z,87.00
2017-09-09T12:14:21.060Z,80.70
2017-09-09T12:16:49.314Z,74.10
2017-09-09T12:19:16.722Z,74.10
2017-09-09T12:21:44.163Z,70.50
2017-09-09T12:24:12.380Z,73.70
2017-09-09T12:26:39.836Z,73.50
2017-09-09T12:29:07.272Z,67.90
2017-09-09T12:31:34.708Z,62.10
2017-09-09T12:34:02.904Z,61.40
2017-09-09T12:36:30.333Z,60.40
2017-09-09T12:38:58.508Z,69.70
2017-09-09T12:41:26.706Z,71.50
2017-09-09T12:43:54.131Z,71.50
2017-09-09T12:46:22.319Z,71.50
2017-09-09T12:48:49.748Z,71.30
2017-09-09T12:51:17.944Z,68.10
2017-09-09T12:53:45.379Z,68.10
2017-09-09T12:56:13.609Z,66.20
2017-09-09T12:58:41.072Z,66.10
2017-09-09T13:01:08.489Z,68.30
2017-09-09T13:03:35.993Z,72.20
2017-09-09T13:06:03.405Z,74.70
2017-09-09T13:08:30.904Z,77.00
2017-09-09T13:10:58.441Z,79.00
2017-09-09T13:13:25.902Z,78.90
2017-09-09T13:15:53.360Z,81.40
2017-09-09T13:18:20.792Z,83.20
2017-09-09T13:20:48.272Z,83.90
2017-09-09T13:23:15.704Z,82.10
2017-09-09T13:25:43.165Z,81.20
2017-09-09T13:28:10.592Z,75.60
2017-09-09T13:30:38.794Z,68.60
2017-09-09T13:33:06.274Z,68.50
2017-09-09T13:35:33.704Z,64.50
2017-09-09T13:38:01.151Z,59.20
2017-09-09T13:40:29.361Z,54.40
2017-09-09T13:42:56.846Z,54.30
2017-09-09T13:45:24.269Z,50.50
2017-09-09T13:47:51.717Z,51.50
2017-09-09T13:50:19.160Z,50.80
2017-09-09T13:52:47.356Z,48.00
2017-09-09T13:55:14.824Z,48.00
2017-09-09T13:57:42.250Z,51.50
2017-09-09T14:00:09.716Z,55.20
2017-09-09T14:02:37.181Z,57.80
2017-09-09T14:05:04.608Z,60.60
2017-09-09T14:07:32.948Z,63.60
2017-09-09T14:10:00.484Z,64.50
2017-09-09T14:12:27.903Z,66.10
2017-09-09T14:14:55.341Z,61.10
2017-09-09T14:17:23.583Z,56.10
2017-09-09T14:19:51.024Z,56.10
2017-09-09T14:22:18.497Z,56.70
2017-09-09T14:24:46.042Z,59.50
2017-09-09T14:27:13.458Z,62.60
2017-09-09T14:29:40.951Z,64.70
2017-09-09T14:32:08.427Z,66.90
2017-09-09T14:34:35.860Z,68.00
2017-09-09T14:37:03.292Z,70.00
2017-09-09T14:39:30.724Z,70.30
2017-09-09T14:41:58.916Z,71.80
2017-09-09T14:44:26.344Z,71.80
2017-09-09T14:46:54.568Z,72.80
2017-09-09T14:49:22.036Z,72.80
2017-09-09T14:51:49.469Z,72.60
2017-09-09T14:54:16.908Z,71.80
2017-09-09T14:56:44.359Z,71.00
2017-09-09T14:59:12.572Z,71.10
2017-09-09T15:01:40.064Z,71.10
2017-09-09T15:04:07.589Z,71.50
2017-09-09T15:06:35.062Z,71.30
2017-09-09T15:09:02.488Z,71.80
2017-09-09T15:11:29.944Z,72.30
2017-09-09T15:13:57.440Z,72.40
2017-09-09T15:16:24.900Z,71.80
2017-09-09T15:18:52.405Z,71.70
2017-09-09T15:21:19.831Z,71.10
2017-09-09T15:23:48.050Z,70.70
2017-09-09T15:26:15.485Z,70.60
2017-09-09T15:28:43.679Z,69.10
2017-09-09T15:31:11.161Z,69.00
2017-09-09T15:33:38.749Z,68.60
2017-09-09T15:36:06.181Z,62.90
2017-09-09T15:38:33.612Z,58.10
2017-09-09T15:41:01.110Z,56.40
2017-09-09T15:43:28.574Z,55.10
2017-09-09T15:45:56.010Z,54.10
2017-09-09T15:48:23.431Z,54.30
2017-09-09T15:50:50.868Z,52.80
2017-09-09T15:53:19.074Z,52.40
2017-09-09T15:55:47.268Z,52.20
2017-09-09T15:58:14.698Z,52.10
2017-09-09T16:00:42.910Z,53.80
2017-09-09T16:03:10.362Z,53.80
2017-09-09T16:05:38.540Z,53.10
2017-09-09T16:08:06.751Z,53.50
2017-09-09T16:10:34.166Z,53.50
2017-09-09T16:13:01.588Z,53.50
2017-09-09T16:15:29.030Z,55.10
2017-09-09T16:17:57.252Z,60.10
2017-09-09T16:20:24.705Z,60.10
2017-09-09T16:22:52.157Z,62.00
2017-09-09T16:25:19.566Z,66.00
2017-09-09T16:27:47.764Z,67.50
2017-09-09T16:30:15.197Z,67.40
2017-09-09T16:32:43.375Z,69.00
2017-09-09T16:35:11.561Z,69.60
2017-09-09T16:37:39.774Z,70.10
2017-09-09T16:40:07.180Z,70.00
2017-09-09T16:42:34.603Z,70.80
2017-09-09T16:45:02.061Z,71.10
2017-09-09T16:47:29.485Z,71.70
2017-09-09T16:49:56.910Z,72.70
2017-09-09T16:52:24.350Z,74.00
2017-09-09T16:54:52.547Z,74.30
2017-09-09T16:57:19.990Z,74.30
2017-09-09T16:59:48.206Z,75.40
2017-09-09T17:02:15.632Z,75.30
2017-09-09T17:04:43.064Z,75.90
2017-09-09T17:07:11.254Z,76.50
2017-09-09T17:09:38.880Z,77.30
2017-09-09T17:12:06.310Z,76.80
2017-09-09T17:14:33.736Z,76.90
2017-09-09T17:17:01.185Z,77.50
2017-09-09T17:19:28.690Z,77.70
2017-09-09T17:21:56.148Z,78.90
2017-09-09T17:24:23.557Z,78.90
2017-09-09T17:26:50.981Z,78.90
2017-09-09T17:29:19.232Z,79.70
2017-09-09T17:31:46.657Z,79.60
2017-09-09T17:34:14.129Z,79.80
2017-09-09T17:36:41.583Z,80.40
2017-09-09T17:39:09.022Z,79.60
2017-09-09T17:41:36.459Z,78.30
2017-09-09T17:44:04.706Z,78.20
2017-09-09T17:46:32.913Z,78.30
2017-09-09T17:49:00.342Z,78.30
2017-09-09T17:51:28.671Z,79.20
2017-09-09T17:53:56.097Z,79.20
2017-09-09T17:56:23.524Z,79.50
2017-09-09T17:58:50.940Z,79.90
2017-09-09T18:01:18.364Z,79.80
2017-09-09T18:03:45.793Z,80.10
2017-09-09T18:06:13.224Z,80.00
2017-09-09T18:08:40.676Z,80.50
2017-09-09T18:11:08.103Z,80.60
2017-09-09T18:13:35.523Z,80.90
2017-09-09T18:16:02.945Z,82.10
2017-09-09T18:18:30.381Z,84.00
2017-09-09T18:20:57.837Z,84.30
2017-09-09T18:23:25.268Z,85.50
2017-09-09T18:25:52.765Z,85.80
2017-09-09T18:28:20.210Z,86.00
2017-09-09T18:30:47.640Z,86.40
2017-09-09T18:33:15.076Z,86.40
2017-09-09T18:35:43.304Z,87.20
2017-09-09T18:38:10.728Z,87.10
2017-09-09T18:40:38.164Z,87.30
2017-09-09T18:43:06.373Z,87.50
2017-09-09T18:45:33.785Z,87.50
2017-09-09T18:48:02.018Z,88.50
2017-09-09T18:50:29.487Z,88.50
2017-09-09T18:52:56.912Z,89.00
2017-09-09T18:55:24.390Z,89.00
2017-09-09T18:57:51.821Z,88.90
2017-09-09T19:00:19.307Z,89.40
2017-09-09T19:02:46.728Z,89.50
2017-09-09T19:05:14.196Z,89.90
2017-09-09T19:07:42.393Z,90.50
2017-09-09T19:10:09.816Z,90.50
2017-09-09T19:12:37.265Z,91.90
2017-09-09T19:15:04.697Z,91.70
2017-09-09T19:17:32.899Z,94.30
2017-09-09T19:20:00.373Z,94.40
2017-09-09T19:22:27.817Z,94.30
2017-09-09T19:24:55.289Z,95.30
2017-09-09T19:27:22.729Z,95.80
2017-09-09T19:29:50.186Z,96.00
2017-09-09T19:32:17.588Z,96.20
2017-09-09T19:34:45.117Z,97.00
2017-09-09T19:37:12.559Z,97.20
2017-09-09T19:39:40.012Z,98.00
2017-09-09T19:42:07.424Z,98.80
2017-09-09T19:44:34.854Z,98.10
2017-09-09T19:47:02.298Z,98.30
2017-09-09T19:49:29.746Z,97.80
2017-09-09T19:51:57.167Z,97.30
2017-09-09T19:54:24.597Z,97.20
2017-09-09T19:56:52.056Z,96.90
2017-09-09T19:59:19.484Z,97.10
2017-09-09T20:01:46.928Z,97.40
2017-09-09T20:04:14.358Z,97.30
2017-09-09T20:06:41.789Z,97.80
2017-09-09T20:09:10.013Z,97.80
2017-09-09T20:11:37.469Z,97.80
2017-09-09T20:14:04.896Z,98.00
2017-09-09T20:16:32.409Z,98.10
2017-09-09T20:18:59.845Z,98.10
2017-09-09T20:21:27.319Z,98.10
2017-09-09T20:23:54.767Z,98.20
2017-09-09T20:26:22.213Z,97.80
2017-09-09T20:28:49.669Z,97.90
2017-09-09T20:31:17.128Z,97.90
2017-09-09T20:33:44.583Z,98.80
2017-09-09T20:36:12.067Z,98.70
2017-09-09T20:38:39.525Z,99.30
2017-09-09T20:41:07.769Z,98.00
2017-09-09T20:43:35.253Z,98.00
2017-09-09T20:46:02.788Z,97.70
2017-09-09T20:48:30.245Z,97.90
2017-09-09T20:50:57.693Z,97.60
2017-09-09T20:53:25.116Z,97.50
2017-09-09T20:55:52.633Z,97.40
2017-09-09T20:58:20.074Z,97.30
2017-09-09T21:00:48.294Z,97.10
2017-09-09T21:03:15.755Z,97.10
2017-09-09T21:05:43.184Z,98.10
2017-09-09T21:08:10.638Z,99.40
2017-09-09T21:10:38.133Z,99.90
2017-09-09T21:13:05.688Z,99.90
2017-09-09T21:15:33.217Z,99.90
2017-09-09T21:18:00.640Z,99.90
2017-09-09T21:20:28.828Z,99.90
2017-09-09T21:22:56.280Z,99.90
2017-09-09T21:25:23.730Z,99.90
2017-09-09T21:27:51.928Z,99.90
2017-09-09T21:30:19.389Z,99.90
2017-09-09T21:32:46.829Z,99.90
2017-09-09T21:35:14.273Z,99.90
2017-09-09T21:37:41.701Z,99.90
2017-09-09T21:40:09.116Z,99.90
2017-09-09T21:42:36.562Z,99.90
2017-09-09T21:45:04.004Z,99.90
2017-09-09T21:47:31.428Z,99.70
2017-09-09T21:49:59.669Z,98.90
2017-09-09T21:52:27.106Z,98.80
2017-09-09T21:54:54.633Z,99.00
2017-09-09T21:57:22.133Z,98.70
2017-09-09T21:59:49.604Z,98.90
2017-09-09T22:02:17.071Z,99.10
2017-09-09T22:04:44.552Z,98.60
2017-09-09T22:07:12.026Z,98.30
2017-09-09T22:09:39.580Z,98.20
2017-09-09T22:12:07.117Z,98.50
2017-09-09T22:14:34.581Z,98.60
2017-09-09T22:17:02.892Z,99.00
2017-09-09T22:19:30.452Z,98.70
2017-09-09T22:21:58.060Z,98.70
2017-09-09T22:24:25.575Z,98.80
2017-09-09T22:26:53.041Z,98.90
2017-09-09T22:29:20.532Z,98.90
2017-09-09T22:31:48.012Z,98.70
2017-09-09T22:34:16.261Z,98.40
2017-09-09T22:36:43.781Z,98.40
2017-09-09T22:39:12.021Z,99.00
2017-09-09T22:41:39.545Z,99.00
2017-09-09T22:44:07.054Z,99.00
2017-09-09T22:46:35.326Z,99.10
2017-09-09T22:49:02.789Z,99.10
2017-09-09T22:51:30.476Z,99.70
2017-09-09T22:53:58.005Z,99.30
2017-09-09T22:56:25.623Z,99.00
2017-09-09T22:58:53.808Z,98.50
2017-09-09T23:01:21.229Z,98.30
2017-09-09T23:03:48.862Z,98.00
2017-09-09T23:06:16.317Z,97.90
2017-09-09T23:08:43.861Z,97.70
2017-09-09T23:11:11.289Z,97.70
2017-09-09T23:13:38.716Z,97.50
2017-09-09T23:16:06.226Z,97.30
2017-09-09T23:18:33.872Z,97.30
2017-09-09T23:21:01.395Z,97.20
2017-09-09T23:23:28.817Z,97.30
2017-09-09T23:25:56.349Z,97.70
2017-09-09T23:28:23.852Z,97.50
2017-09-09T23:30:51.366Z,97.80
2017-09-09T23:33:18.850Z,98.10
2017-09-09T23:35:46.324Z,98.00
2017-09-09T23:38:13.833Z,98.00
2017-09-09T23:40:42.197Z,97.80
2017-09-09T23:43:10.444Z,97.70
2017-09-09T23:45:38.005Z,97.70
2017-09-09T23:48:05.495Z,97.80
2017-09-09T23:50:33.737Z,98.20
2017-09-09T23:53:01.224Z,97.70
2017-09-09T23:55:28.740Z,97.80
2017-09-09T23:57:56.228Z,97.80
